createdAt,value
2019-05-21T00:02:24.318Z,89.90
2019-05-21T00:04:55.515Z,89.83
2019-05-21T00:07:28.442Z,89.91
2019-05-21T00:10:00.030Z,90.00
2019-05-21T00:12:32.634Z,90.15
2019-05-21T00:15:05.603Z,90.17
2019-05-21T00:17:36.667Z,90.19
2019-05-21T00:20:08.927Z,89.94
2019-05-21T00:22:40.023Z,89.78
2019-05-21T00:25:11.364Z,89.91
2019-05-21T00:27:42.404Z,89.79
2019-05-21T00:30:50.635Z,89.72
2019-05-21T00:33:58.423Z,89.74
2019-05-21T00:37:07.493Z,89.74
2019-05-21T00:40:14.272Z,89.54
2019-05-21T00:42:46.371Z,89.65
2019-05-21T00:45:17.431Z,89.52
2019-05-21T00:47:48.475Z,89.21
2019-05-21T00:50:21.105Z,89.11
2019-05-21T00:52:54.723Z,88.97
2019-05-21T00:55:25.802Z,88.99
2019-05-21T00:57:56.862Z,88.94
2019-05-21T01:00:27.959Z,88.91
2019-05-21T01:02:59.013Z,88.92
2019-05-21T01:05:30.023Z,89.11
2019-05-21T01:08:01.988Z,89.05
2019-05-21T01:10:33.027Z,88.98
2019-05-21T01:13:04.117Z,88.87
2019-05-21T01:15:35.209Z,88.73
2019-05-21T01:18:07.937Z,88.68
2019-05-21T01:20:39.121Z,88.70
2019-05-21T01:23:14.985Z,88.61
2019-05-21T01:25:46.119Z,88.57
2019-05-21T01:28:17.197Z,88.50
2019-05-21T01:30:48.213Z,88.60
2019-05-21T01:33:19.282Z,88.66
2019-05-21T01:35:51.927Z,88.57
2019-05-21T01:38:26.356Z,88.59
2019-05-21T01:40:59.747Z,88.60
2019-05-21T01:43:30.832Z,88.50
2019-05-21T01:46:01.847Z,88.62
2019-05-21T01:48:34.337Z,88.67
2019-05-21T01:51:06.905Z,88.64
2019-05-21T01:53:37.971Z,88.60
2019-05-21T01:56:08.995Z,88.63
2019-05-21T01:58:43.092Z,88.44
2019-05-21T02:01:14.136Z,88.33
2019-05-21T02:04:03.026Z,88.15
2019-05-21T02:06:37.327Z,88.03
2019-05-21T02:09:10.885Z,87.89
2019-05-21T02:11:43.871Z,87.71
2019-05-21T02:14:14.940Z,87.65
2019-05-21T02:16:48.254Z,87.55
2019-05-21T02:19:21.122Z,87.43
2019-05-21T02:21:53.720Z,87.48
2019-05-21T02:24:25.612Z,87.37
2019-05-21T02:26:59.810Z,87.16
2019-05-21T02:29:30.927Z,87.32
2019-05-21T02:32:03.485Z,87.55
2019-05-21T02:34:35.513Z,87.61
2019-05-21T02:37:07.415Z,87.61
2019-05-21T02:39:39.366Z,87.67
2019-05-21T02:42:12.011Z,87.91
2019-05-21T02:44:43.075Z,88.17
2019-05-21T02:47:14.112Z,88.28
2019-05-21T02:49:45.217Z,88.36
2019-05-21T02:52:16.320Z,88.45
2019-05-21T02:54:47.434Z,88.17
2019-05-21T02:57:18.481Z,87.94
2019-05-21T02:59:51.111Z,88.12
2019-05-21T03:02:31.365Z,88.86
2019-05-21T03:05:04.807Z,89.13
2019-05-21T03:07:35.936Z,89.12
2019-05-21T03:10:08.873Z,89.12
2019-05-21T03:12:39.899Z,89.57
2019-05-21T03:15:10.962Z,90.01
2019-05-21T03:17:42.021Z,90.19
2019-05-21T03:20:13.479Z,90.30
2019-05-21T03:22:44.535Z,90.14
2019-05-21T03:25:16.520Z,89.92
2019-05-21T03:27:47.617Z,89.88
2019-05-21T03:30:21.932Z,89.95
2019-05-21T03:32:53.218Z,90.32
2019-05-21T03:35:24.263Z,90.66
2019-05-21T03:37:58.391Z,91.20
2019-05-21T03:40:31.793Z,90.98
2019-05-21T03:43:02.861Z,90.97
2019-05-21T03:45:34.064Z,91.20
2019-05-21T03:48:05.126Z,91.58
2019-05-21T03:50:36.170Z,91.37
2019-05-21T03:53:07.203Z,91.43
2019-05-21T03:55:40.154Z,91.54
2019-05-21T03:58:11.195Z,91.60
2019-05-21T04:00:42.221Z,91.62
2019-05-21T04:03:14.837Z,91.44
2019-05-21T04:05:45.889Z,91.15
2019-05-21T04:08:16.979Z,91.09
2019-05-21T04:10:49.016Z,91.17
2019-05-21T04:13:20.045Z,91.89
2019-05-21T04:15:55.679Z,91.85
2019-05-21T04:18:31.055Z,91.85
2019-05-21T04:21:02.123Z,91.44
2019-05-21T04:23:33.176Z,91.11
2019-05-21T04:26:08.229Z,90.91
2019-05-21T04:28:39.276Z,90.90
2019-05-21T04:31:10.354Z,90.86
2019-05-21T04:33:41.373Z,90.73
2019-05-21T04:36:14.138Z,90.44
2019-05-21T04:38:45.967Z,88.99
2019-05-21T04:41:17.081Z,88.75
2019-05-21T04:43:48.120Z,88.64
2019-05-21T04:46:19.219Z,88.31
2019-05-21T04:48:51.817Z,88.59
2019-05-21T04:51:22.866Z,88.78
2019-05-21T04:53:53.935Z,88.75
2019-05-21T04:56:25.912Z,87.83
2019-05-21T04:58:56.927Z,86.70
2019-05-21T05:01:27.997Z,87.16
2019-05-21T05:03:59.041Z,87.73
2019-05-21T05:06:30.124Z,87.53
2019-05-21T05:09:01.163Z,86.77
2019-05-21T05:11:33.081Z,87.51
2019-05-21T05:14:04.249Z,84.87
2019-05-21T05:16:36.739Z,84.56
2019-05-21T05:19:08.153Z,85.13
2019-05-21T05:21:39.254Z,85.21
2019-05-21T05:24:13.389Z,83.12
2019-05-21T05:26:45.270Z,81.51
2019-05-21T05:29:16.382Z,77.95
2019-05-21T05:31:47.425Z,76.92
2019-05-21T05:34:18.475Z,75.57
2019-05-21T05:36:51.172Z,75.06
2019-05-21T05:39:23.116Z,73.39
2019-05-21T05:41:54.161Z,71.41
2019-05-21T05:44:25.248Z,70.48
2019-05-21T05:46:57.126Z,70.36
2019-05-21T05:49:32.720Z,68.83
2019-05-21T05:52:03.777Z,68.29
2019-05-21T05:54:34.854Z,68.16
2019-05-21T05:57:07.489Z,68.06
2019-05-21T05:59:38.551Z,67.99
2019-05-21T06:02:09.624Z,67.52
2019-05-21T06:04:40.652Z,66.97
2019-05-21T06:07:12.532Z,66.01
2019-05-21T06:09:43.572Z,65.10
2019-05-21T06:12:15.490Z,64.92
2019-05-21T06:14:46.580Z,65.76
2019-05-21T06:17:17.931Z,67.48
2019-05-21T06:19:49.043Z,68.35
2019-05-21T06:22:20.203Z,69.90
2019-05-21T06:24:51.307Z,71.01
2019-05-21T06:27:23.204Z,71.86
2019-05-21T06:29:54.323Z,72.46
2019-05-21T06:32:25.452Z,73.11
2019-05-21T06:34:56.462Z,73.23
2019-05-21T06:37:28.201Z,73.33
2019-05-21T06:40:00.135Z,73.45
2019-05-21T06:42:31.309Z,74.19
2019-05-21T06:45:02.746Z,74.82
2019-05-21T06:47:34.276Z,75.82
2019-05-21T06:50:06.901Z,76.37
2019-05-21T06:52:38.117Z,76.51
2019-05-21T06:55:11.387Z,76.24
2019-05-21T06:57:43.370Z,76.59
2019-05-21T07:00:14.794Z,77.21
2019-05-21T07:02:45.898Z,78.02
2019-05-21T07:05:20.218Z,79.43
2019-05-21T07:07:54.087Z,79.38
2019-05-21T07:10:25.138Z,79.59
2019-05-21T07:12:57.178Z,80.03
2019-05-21T07:15:28.202Z,80.00
2019-05-21T07:17:59.336Z,79.71
2019-05-21T07:20:30.373Z,79.55
2019-05-21T07:23:04.567Z,78.83
2019-05-21T07:25:35.808Z,78.39
2019-05-21T07:28:06.972Z,78.60
2019-05-21T07:30:38.055Z,78.36
2019-05-21T07:33:09.253Z,77.52
2019-05-21T07:35:40.308Z,77.69
2019-05-21T07:38:12.850Z,76.99
2019-05-21T07:40:44.722Z,76.55
2019-05-21T07:43:15.820Z,76.29
2019-05-21T07:45:46.860Z,76.10
2019-05-21T07:48:17.939Z,75.48
2019-05-21T07:50:48.982Z,74.77
2019-05-21T07:53:20.187Z,73.92
2019-05-21T07:55:52.828Z,72.94
2019-05-21T07:58:26.161Z,72.52
2019-05-21T08:01:00.939Z,71.58
2019-05-21T08:03:29.994Z,70.56
2019-05-21T08:06:01.092Z,70.36
2019-05-21T08:08:33.682Z,69.99
2019-05-21T08:11:04.775Z,69.20
2019-05-21T08:13:36.676Z,68.45
2019-05-21T08:16:09.217Z,67.36
2019-05-21T08:18:40.286Z,67.09
2019-05-21T08:21:11.331Z,66.03
2019-05-21T08:23:42.392Z,65.72
2019-05-21T08:26:13.431Z,65.52
2019-05-21T08:28:46.085Z,64.46
2019-05-21T08:31:17.171Z,64.14
2019-05-21T08:33:48.272Z,64.07
2019-05-21T08:36:20.758Z,63.97
2019-05-21T08:38:52.004Z,64.40
2019-05-21T08:41:26.162Z,64.00
2019-05-21T08:43:57.491Z,63.54
2019-05-21T08:46:28.540Z,63.14
2019-05-21T08:49:00.504Z,63.12
2019-05-21T08:51:31.563Z,62.84
2019-05-21T08:54:02.663Z,63.25
2019-05-21T08:56:33.713Z,63.61
2019-05-21T08:59:04.785Z,64.04
2019-05-21T09:01:35.932Z,64.42
2019-05-21T09:04:06.999Z,64.82
2019-05-21T09:06:39.560Z,66.50
2019-05-21T09:09:10.659Z,67.11
2019-05-21T09:11:41.742Z,66.27
2019-05-21T09:14:15.270Z,66.04
2019-05-21T09:16:46.309Z,66.64
2019-05-21T09:19:17.387Z,67.90
2019-05-21T09:21:48.494Z,67.27
2019-05-21T09:24:21.056Z,66.79
2019-05-21T09:26:52.068Z,68.82
2019-05-21T09:29:24.048Z,69.26
2019-05-21T09:31:55.143Z,71.89
2019-05-21T09:34:26.272Z,72.35
2019-05-21T09:36:58.741Z,71.95
2019-05-21T09:39:32.795Z,72.00
2019-05-21T09:42:03.837Z,72.20
2019-05-21T09:44:37.590Z,71.21
2019-05-21T09:47:08.639Z,70.93
2019-05-21T09:49:39.736Z,70.98
2019-05-21T09:52:12.347Z,71.08
2019-05-21T09:54:43.409Z,69.83
2019-05-21T09:57:16.009Z,70.12
2019-05-21T09:59:49.548Z,70.51
2019-05-21T10:02:22.165Z,71.46
2019-05-21T10:04:53.240Z,71.68
2019-05-21T10:07:39.053Z,72.22
2019-05-21T10:09:57.073Z,71.71
2019-05-21T10:12:28.142Z,71.76
2019-05-21T10:15:00.066Z,71.99
2019-05-21T10:17:34.282Z,71.85
2019-05-21T10:20:07.121Z,71.28
2019-05-21T10:22:38.247Z,70.51
2019-05-21T10:25:10.880Z,71.34
2019-05-21T10:27:41.996Z,71.25
2019-05-21T10:30:14.254Z,72.36
2019-05-21T10:32:45.331Z,73.19
2019-05-21T10:35:16.430Z,72.59
2019-05-21T10:37:54.930Z,72.99
2019-05-21T10:40:20.331Z,72.26
2019-05-21T10:42:51.361Z,72.60
2019-05-21T10:45:22.442Z,72.71
2019-05-21T10:47:53.501Z,72.38
2019-05-21T10:50:26.137Z,71.89
2019-05-21T10:52:57.275Z,71.69
2019-05-21T10:55:28.321Z,71.93
2019-05-21T10:57:59.469Z,71.33
2019-05-21T11:00:31.669Z,72.10
2019-05-21T11:03:13.375Z,72.67
2019-05-21T11:05:46.187Z,72.56
2019-05-21T11:08:25.405Z,72.30
2019-05-21T11:10:49.998Z,72.37
2019-05-21T11:13:21.035Z,72.68
2019-05-21T11:15:52.119Z,72.20
2019-05-21T11:18:23.155Z,72.04
2019-05-21T11:20:55.757Z,70.73
2019-05-21T11:23:26.787Z,70.65
2019-05-21T11:25:57.937Z,68.04
2019-05-21T11:30:11.354Z,67.89
2019-05-21T11:31:09.234Z,65.85
2019-05-21T11:33:41.867Z,65.55
2019-05-21T11:36:12.956Z,65.44
2019-05-21T11:38:43.986Z,64.51
2019-05-21T11:41:15.150Z,64.16
2019-05-21T11:43:47.124Z,64.77
2019-05-21T11:46:18.171Z,64.59
2019-05-21T11:48:50.643Z,64.11
2019-05-21T11:51:21.731Z,64.12
2019-05-21T11:53:53.114Z,64.31
2019-05-21T11:56:25.683Z,64.38
2019-05-21T11:58:56.753Z,64.06
2019-05-21T12:01:27.838Z,64.80
2019-05-21T12:04:00.466Z,65.32
2019-05-21T12:06:31.520Z,64.99
2019-05-21T12:09:02.588Z,64.21
2019-05-21T12:11:36.626Z,65.18
2019-05-21T12:14:07.759Z,65.48
2019-05-21T12:16:39.649Z,66.54
2019-05-21T12:19:12.299Z,66.10
2019-05-21T12:21:43.420Z,66.16
2019-05-21T12:24:16.144Z,67.16
2019-05-21T12:26:52.607Z,67.54
2019-05-21T12:29:27.715Z,68.28
2019-05-21T12:32:02.276Z,68.58
2019-05-21T12:34:38.938Z,68.04
2019-05-21T12:37:09.249Z,68.71
2019-05-21T12:39:41.919Z,68.90
2019-05-21T12:42:17.720Z,69.43
2019-05-21T12:44:45.842Z,69.37
2019-05-21T12:47:21.073Z,68.20
2019-05-21T12:49:55.303Z,68.27
2019-05-21T12:52:26.406Z,67.65
2019-05-21T12:54:57.553Z,67.27
2019-05-21T12:57:35.894Z,66.67
2019-05-21T13:00:03.194Z,66.54
2019-05-21T13:02:36.315Z,66.79
2019-05-21T13:05:11.203Z,67.27
2019-05-21T13:07:41.824Z,67.50
2019-05-21T13:10:22.405Z,66.90
2019-05-21T13:12:50.062Z,65.72
2019-05-21T13:15:21.216Z,65.47
2019-05-21T13:17:55.070Z,65.27
2019-05-21T13:20:27.764Z,66.23
2019-05-21T13:22:58.797Z,67.09
2019-05-21T13:25:29.858Z,66.69
2019-05-21T13:28:04.444Z,67.18
2019-05-21T13:30:36.764Z,66.93
2019-05-21T13:33:08.741Z,67.63
2019-05-21T13:35:39.870Z,67.24
2019-05-21T13:38:13.531Z,67.86
2019-05-21T13:40:43.862Z,68.36
2019-05-21T13:43:22.065Z,68.83
2019-05-21T13:45:56.602Z,68.99
2019-05-21T13:48:28.552Z,68.90
2019-05-21T13:50:59.716Z,68.71
2019-05-21T13:53:32.435Z,69.45
2019-05-21T13:56:04.746Z,68.70
2019-05-21T13:58:37.408Z,68.64
2019-05-21T14:01:09.432Z,68.77
2019-05-21T14:03:45.909Z,69.29
2019-05-21T14:06:20.369Z,68.85
2019-05-21T14:08:52.738Z,69.32
2019-05-21T14:11:23.875Z,69.80
2019-05-21T14:13:54.990Z,69.94
2019-05-21T14:16:26.057Z,69.41
2019-05-21T14:18:58.113Z,68.74
2019-05-21T14:21:30.391Z,69.03
2019-05-21T14:24:01.490Z,68.83
2019-05-21T14:26:32.600Z,68.70
2019-05-21T14:29:06.841Z,69.00
2019-05-21T14:31:40.888Z,68.40
2019-05-21T14:34:17.100Z,68.19
2019-05-21T14:36:49.739Z,67.83
2019-05-21T14:39:20.776Z,68.16
2019-05-21T14:41:51.838Z,67.74
2019-05-21T14:44:22.921Z,67.86
2019-05-21T14:46:54.804Z,67.49
2019-05-21T14:49:29.317Z,67.09
2019-05-21T14:52:00.318Z,67.07
2019-05-21T14:54:31.422Z,67.15
2019-05-21T14:57:04.038Z,66.81
2019-05-21T14:59:35.109Z,66.81
2019-05-21T15:02:07.560Z,66.63
2019-05-21T15:04:39.004Z,67.11
2019-05-21T15:07:10.337Z,67.05
2019-05-21T15:09:41.469Z,67.16
2019-05-21T15:12:14.711Z,67.74
2019-05-21T15:14:46.322Z,67.71
2019-05-21T15:17:17.478Z,67.65
2019-05-21T15:19:50.087Z,67.53
2019-05-21T15:22:22.383Z,67.55
2019-05-21T15:24:53.438Z,67.96
2019-05-21T15:27:29.456Z,67.64
2019-05-21T15:30:00.588Z,68.13
2019-05-21T15:32:31.675Z,68.11
2019-05-21T15:35:04.337Z,68.38
2019-05-21T15:37:37.960Z,68.05
2019-05-21T15:40:11.186Z,68.45
2019-05-21T15:42:42.314Z,68.56
2019-05-21T15:45:14.993Z,68.50
2019-05-21T15:47:47.796Z,68.45
2019-05-21T15:50:18.874Z,68.62
2019-05-21T15:52:53.095Z,68.70
2019-05-21T15:55:24.139Z,68.66
2019-05-21T15:57:55.232Z,68.85
2019-05-21T16:00:27.211Z,69.91
2019-05-21T16:02:58.390Z,69.93
2019-05-21T16:05:32.075Z,70.22
2019-05-21T16:08:04.811Z,70.25
2019-05-21T16:10:35.912Z,70.19
2019-05-21T16:13:07.964Z,70.23
2019-05-21T16:15:40.714Z,70.42
2019-05-21T16:18:11.857Z,70.34
2019-05-21T16:20:43.033Z,70.42
2019-05-21T16:23:16.489Z,70.45
2019-05-21T16:25:47.577Z,70.45
2019-05-21T16:28:18.672Z,70.49
2019-05-21T16:30:51.333Z,70.75
2019-05-21T16:33:22.426Z,70.47
2019-05-21T16:35:53.472Z,70.40
2019-05-21T16:38:25.349Z,70.27
2019-05-21T16:40:56.410Z,70.59
2019-05-21T16:43:27.454Z,70.87
2019-05-21T16:45:58.526Z,70.81
2019-05-21T16:48:33.448Z,70.79
2019-05-21T16:51:04.585Z,70.69
2019-05-21T16:53:36.680Z,71.14
2019-05-21T16:56:07.780Z,71.10
2019-05-21T16:58:40.518Z,71.95
2019-05-21T17:01:11.953Z,71.91
2019-05-21T17:03:43.083Z,72.14
2019-05-21T17:06:14.117Z,72.39
2019-05-21T17:08:45.345Z,72.89
2019-05-21T17:11:17.905Z,72.30
2019-05-21T17:13:48.984Z,73.06
2019-05-21T17:16:20.618Z,73.09
2019-05-21T17:18:51.753Z,73.22
2019-05-21T17:21:22.819Z,73.45
2019-05-21T17:23:54.824Z,72.96
2019-05-21T17:26:26.216Z,72.46
2019-05-21T17:28:57.281Z,71.94
2019-05-21T17:31:31.652Z,71.54
2019-05-21T17:34:02.766Z,71.31
2019-05-21T17:36:35.458Z,70.94
2019-05-21T17:39:08.387Z,70.87
2019-05-21T17:41:39.439Z,70.71
2019-05-21T17:44:12.109Z,70.75
2019-05-21T17:46:43.159Z,71.52
2019-05-21T17:49:17.636Z,71.78
2019-05-21T17:51:50.491Z,72.12
2019-05-21T17:54:26.613Z,72.33
2019-05-21T17:56:58.604Z,72.66
2019-05-21T17:59:29.754Z,72.99
2019-05-21T18:02:05.242Z,73.57
2019-05-21T18:04:39.807Z,74.10
2019-05-21T18:07:12.501Z,74.30
2019-05-21T18:09:45.232Z,74.71
2019-05-21T18:12:31.263Z,74.98
2019-05-21T18:14:55.922Z,74.53
2019-05-21T18:17:42.667Z,74.88
2019-05-21T18:20:26.333Z,74.26
2019-05-21T18:26:58.883Z,75.15
2019-05-21T18:33:09.203Z,74.65
2019-05-21T18:35:40.607Z,74.64
2019-05-21T18:38:16.694Z,74.49
2019-05-21T18:40:47.913Z,74.21
2019-05-21T18:43:19.384Z,74.47
2019-05-21T18:45:50.582Z,74.68
2019-05-21T18:49:01.331Z,74.55
2019-05-21T18:51:34.075Z,74.64
2019-05-21T18:58:21.707Z,74.51
2019-05-21T18:59:23.101Z,74.41
2019-05-21T19:01:54.595Z,74.28
2019-05-21T19:04:30.678Z,74.04
2019-05-21T19:07:05.408Z,74.00
2019-05-21T19:09:37.125Z,74.28
2019-05-21T19:12:10.005Z,75.26
2019-05-21T19:14:45.251Z,76.33
2019-05-21T19:17:17.225Z,77.07
2019-05-21T19:19:48.397Z,76.82
2019-05-21T19:22:21.335Z,77.03
2019-05-21T19:24:52.968Z,76.71
2019-05-21T19:27:25.082Z,76.63
2019-05-21T19:29:57.484Z,76.49
2019-05-21T19:32:32.153Z,76.48
2019-05-21T19:35:09.406Z,77.03
2019-05-21T19:37:40.810Z,77.66
2019-05-21T19:40:14.201Z,77.75
2019-05-21T19:42:54.448Z,77.75
2019-05-21T19:45:40.197Z,77.57
2019-05-21T19:48:07.787Z,77.95
2019-05-21T19:50:39.108Z,78.35
2019-05-21T19:53:10.369Z,78.90
2019-05-21T19:55:41.809Z,78.08
2019-05-21T19:58:17.300Z,77.91
2019-05-21T20:00:53.713Z,77.66
2019-05-21T20:03:26.691Z,77.84
2019-05-21T20:05:59.335Z,78.33
2019-05-21T20:08:30.666Z,77.89
2019-05-21T20:11:09.375Z,77.70
2019-05-21T20:13:45.596Z,77.53
2019-05-21T20:16:15.181Z,77.43
2019-05-21T20:18:46.371Z,77.25
2019-05-21T20:21:18.621Z,77.14
2019-05-21T20:23:51.307Z,77.07
2019-05-21T20:26:25.083Z,77.08
2019-05-21T20:28:56.669Z,77.08
2019-05-21T20:31:28.839Z,77.03
2019-05-21T20:34:01.273Z,77.03
2019-05-21T20:36:33.085Z,77.02
2019-05-21T20:39:06.771Z,77.00
2019-05-21T20:41:42.259Z,76.95
2019-05-21T20:44:15.233Z,76.96
2019-05-21T20:46:48.493Z,77.03
2019-05-21T20:49:19.626Z,77.11
2019-05-21T20:51:55.281Z,77.12
2019-05-21T20:54:31.521Z,77.32
2019-05-21T20:57:05.790Z,77.22
2019-05-21T20:59:44.087Z,77.46
2019-05-21T21:02:17.411Z,77.87
2019-05-21T21:04:51.899Z,78.24
2019-05-21T21:07:37.575Z,78.15
2019-05-21T21:10:19.817Z,77.84
2019-05-21T21:13:14.805Z,77.58
2019-05-21T21:15:55.914Z,77.50
2019-05-21T21:21:40.008Z,77.44
2019-05-21T21:24:30.584Z,77.34
2019-05-21T21:26:59.861Z,77.30
2019-05-21T21:30:02.373Z,77.24
2019-05-21T21:32:49.544Z,77.11
2019-05-21T21:35:22.044Z,77.27
2019-05-21T21:37:58.396Z,77.32
2019-05-21T21:40:49.015Z,77.60
2019-05-21T21:43:29.031Z,77.62
2019-05-21T21:46:02.453Z,77.72
2019-05-21T21:48:35.580Z,77.67
2019-05-21T21:51:14.159Z,77.57
2019-05-21T21:54:08.337Z,77.50
2019-05-21T21:56:48.437Z,77.45
2019-05-21T21:59:20.825Z,77.48
2019-05-21T22:01:54.875Z,77.46
2019-05-21T22:04:32.440Z,77.42
2019-05-21T22:07:07.611Z,77.42
2019-05-21T22:09:43.167Z,77.43
2019-05-21T22:12:18.658Z,77.49
2019-05-21T22:15:02.615Z,77.57
2019-05-21T22:17:45.521Z,77.55
2019-05-21T22:20:23.410Z,77.57
2019-05-21T22:23:03.196Z,77.53
2019-05-21T22:25:36.336Z,77.54
2019-05-21T22:28:14.638Z,77.59
2019-05-21T22:30:45.825Z,77.62
2019-05-21T22:33:18.357Z,77.63
2019-05-21T22:35:49.700Z,77.67
2019-05-21T22:38:20.990Z,77.84
2019-05-21T22:40:54.953Z,77.95
2019-05-21T22:43:31.092Z,78.02
2019-05-21T22:49:10.954Z,78.19
2019-05-21T22:51:42.473Z,78.29
2019-05-21T22:54:14.539Z,78.42
2019-05-21T22:56:50.973Z,78.44
2019-05-21T22:59:22.774Z,78.56
2019-05-21T23:01:55.669Z,78.71
2019-05-21T23:04:29.800Z,78.70
2019-05-21T23:07:06.047Z,78.61
2019-05-21T23:09:45.574Z,78.78
2019-05-21T23:12:18.781Z,78.78
2019-05-21T23:15:00.521Z,78.82
2019-05-21T23:17:58.217Z,78.82
2019-05-21T23:20:55.560Z,78.94
2019-05-21T23:23:20.782Z,79.16
2019-05-21T23:25:58.629Z,79.26
2019-05-21T23:28:49.658Z,79.24
2019-05-21T23:31:20.154Z,79.29
2019-05-21T23:34:17.723Z,79.37
2019-05-21T23:36:53.171Z,79.40
2019-05-21T23:39:35.043Z,79.28
2019-05-21T23:42:28.323Z,79.37
2019-05-21T23:45:01.697Z,79.50
2019-05-21T23:47:47.626Z,79.56
2019-05-21T23:50:26.943Z,79.55
2019-05-21T23:53:17.531Z,79.50
2019-05-21T23:55:44.882Z,79.59
2019-05-21T23:58:20.547Z,79.71
